createdAt,value
2022-11-15T00:01:16.754Z,15.25
2022-11-15T00:04:03.391Z,8.32
2022-11-15T00:06:49.631Z,7.57
2022-11-15T00:09:44.884Z,7.85
2022-11-15T00:12:33.734Z,10.43
2022-11-15T00:15:26.155Z,8.48
2022-11-15T00:18:16.560Z,4.68
2022-11-15T00:21:08.590Z,6.37
2022-11-15T00:23:57.311Z,7.68
2022-11-15T00:26:43.878Z,6.03
2022-11-15T00:29:30.146Z,3.55
2022-11-15T00:32:16.195Z,7.20
2022-11-15T00:35:02.638Z,4.90
2022-11-15T00:37:49.176Z,4.47
2022-11-15T00:40:35.946Z,3.90
2022-11-15T00:43:22.452Z,3.33
2022-11-15T00:46:09.756Z,5.28
2022-11-15T00:48:55.761Z,6.03
2022-11-15T00:51:44.579Z,3.22
2022-11-15T00:54:30.739Z,4.07
2022-11-15T00:57:16.832Z,6.15
2022-11-15T01:00:03.061Z,4.47
2022-11-15T01:02:49.324Z,4.18
2022-11-15T01:05:47.676Z,3.45
2022-11-15T01:08:34.018Z,7.72
2022-11-15T01:11:20.383Z,8.60
2022-11-15T01:14:06.995Z,7.97
2022-11-15T01:16:56.515Z,6.60
2022-11-15T01:19:42.805Z,7.18
2022-11-15T01:22:29.174Z,7.25
2022-11-15T01:25:15.589Z,7.20
2022-11-15T01:28:01.902Z,11.12
2022-11-15T01:30:48.493Z,15.23
2022-11-15T01:33:39.511Z,11.77
2022-11-15T01:36:25.669Z,9.88
2022-11-15T01:39:35.762Z,7.50
2022-11-15T01:42:21.934Z,9.05
2022-11-15T01:45:16.268Z,6.65
2022-11-15T01:48:02.542Z,7.55
2022-11-15T01:50:50.440Z,6.60
2022-11-15T01:53:40.396Z,5.95
2022-11-15T01:56:31.425Z,7.47
2022-11-15T01:59:17.649Z,5.30
2022-11-15T02:02:04.088Z,5.85
2022-11-15T02:04:50.393Z,6.10
2022-11-15T02:07:37.599Z,5.07
2022-11-15T02:10:25.645Z,6.78
2022-11-15T02:13:12.320Z,11.68
2022-11-15T02:16:28.573Z,6.93
2022-11-15T02:19:30.425Z,4.43
2022-11-15T02:22:25.814Z,3.30
2022-11-15T02:25:40.588Z,2.45
2022-11-15T02:28:43.594Z,2.87
2022-11-15T02:31:47.468Z,4.43
2022-11-15T02:34:56.369Z,2.12
2022-11-15T02:37:57.205Z,2.03
2022-11-15T02:40:52.590Z,2.53
2022-11-15T02:43:59.058Z,4.47
2022-11-15T02:47:15.288Z,4.40
2022-11-15T02:50:11.336Z,2.67
2022-11-15T02:52:58.468Z,4.03
2022-11-15T02:55:48.251Z,4.78
2022-11-15T02:59:02.857Z,2.33
2022-11-15T03:02:06.278Z,3.58
2022-11-15T03:05:11.366Z,3.83
2022-11-15T03:08:32.900Z,2.97
2022-11-15T03:11:21.183Z,2.40
2022-11-15T03:14:21.485Z,4.53
2022-11-15T03:17:14.935Z,4.78
2022-11-15T03:20:05.371Z,3.17
2022-11-15T03:22:54.246Z,6.15
2022-11-15T03:25:47.394Z,3.95
2022-11-15T03:28:38.366Z,2.78
2022-11-15T03:31:50.083Z,2.47
2022-11-15T03:34:48.213Z,4.50
2022-11-15T03:37:47.266Z,5.50
2022-11-15T03:40:42.163Z,7.15
2022-11-15T03:43:54.687Z,3.47
2022-11-15T03:46:58.112Z,7.82
2022-11-15T03:52:36.212Z,6.43
2022-11-15T03:55:22.708Z,10.88
2022-11-15T03:58:09.305Z,10.15
2022-11-15T04:00:55.426Z,14.77
2022-11-15T04:03:44.973Z,12.43
2022-11-15T04:06:35.434Z,8.60
2022-11-15T04:09:21.675Z,8.32
2022-11-15T04:12:08.078Z,12.73
2022-11-15T04:15:09.090Z,15.60
2022-11-15T04:17:57.049Z,13.80
2022-11-15T04:21:01.854Z,11.48
2022-11-15T04:24:09.682Z,15.43
2022-11-15T04:26:59.365Z,18.45
2022-11-15T04:29:45.295Z,14.20
2022-11-15T04:32:32.629Z,14.85
2022-11-15T04:35:18.850Z,11.98
2022-11-15T04:38:07.455Z,10.50
2022-11-15T04:40:53.904Z,9.95
2022-11-15T04:43:43.472Z,14.00
2022-11-15T04:46:29.917Z,12.37
2022-11-15T04:49:16.349Z,10.27
2022-11-15T04:52:02.629Z,12.52
2022-11-15T04:54:48.743Z,9.23
2022-11-15T04:57:34.934Z,16.10
2022-11-15T05:00:21.155Z,12.45
2022-11-15T05:03:29.977Z,13.23
2022-11-15T05:06:16.151Z,9.73
2022-11-15T05:09:02.361Z,11.90
2022-11-15T05:11:49.115Z,15.82
2022-11-15T05:14:35.266Z,13.50
2022-11-15T05:17:21.410Z,13.13
2022-11-15T05:20:08.253Z,11.95
2022-11-15T05:22:57.488Z,15.75
2022-11-15T05:25:44.055Z,11.93
2022-11-15T05:28:34.077Z,13.50
2022-11-15T05:31:20.638Z,16.00
2022-11-15T05:34:07.428Z,16.25
2022-11-15T05:36:56.877Z,17.48
2022-11-15T05:39:45.856Z,13.05
2022-11-15T05:42:32.356Z,16.85
2022-11-15T05:45:23.899Z,16.90
2022-11-15T05:48:13.570Z,17.48
2022-11-15T05:51:00.694Z,14.38
2022-11-15T05:53:47.829Z,13.15
2022-11-15T05:56:34.312Z,8.85
2022-11-15T05:59:21.093Z,11.57
2022-11-15T06:02:07.582Z,11.45
2022-11-15T06:04:56.678Z,6.95
2022-11-15T06:07:42.797Z,6.72
2022-11-15T06:10:28.741Z,6.47
2022-11-15T06:13:14.955Z,7.00
2022-11-15T06:16:01.387Z,6.90
2022-11-15T06:18:47.784Z,7.22
2022-11-15T06:21:33.943Z,9.85
2022-11-15T06:24:20.335Z,7.82
2022-11-15T06:27:06.872Z,7.20
2022-11-15T06:29:53.160Z,6.37
2022-11-15T06:32:39.475Z,4.15
2022-11-15T06:35:26.080Z,3.95
2022-11-15T06:38:12.897Z,8.57
2022-11-15T06:41:07.762Z,5.35
2022-11-15T06:43:54.068Z,7.53
2022-11-15T06:46:40.869Z,3.37
2022-11-15T06:49:30.200Z,4.70
2022-11-15T06:52:16.512Z,8.68
2022-11-15T06:55:02.798Z,7.57
2022-11-15T06:57:53.699Z,8.25
2022-11-15T07:00:40.372Z,6.35
2022-11-15T07:03:26.654Z,4.78
2022-11-15T07:06:13.291Z,3.53
2022-11-15T07:08:59.865Z,5.72
2022-11-15T07:11:46.311Z,3.17
2022-11-15T07:14:35.736Z,8.98
2022-11-15T07:17:21.964Z,5.10
2022-11-15T07:20:08.738Z,4.53
2022-11-15T07:23:04.848Z,2.20
2022-11-15T07:25:50.792Z,3.78
2022-11-15T07:28:41.229Z,3.75
2022-11-15T07:31:30.191Z,8.75
2022-11-15T07:34:19.627Z,7.03
2022-11-15T07:37:05.531Z,9.75
2022-11-15T07:39:51.495Z,5.85
2022-11-15T07:42:57.395Z,7.22
2022-11-15T07:45:46.384Z,6.68
2022-11-15T07:48:43.416Z,3.75
2022-11-15T07:51:31.573Z,5.10
2022-11-15T07:54:23.998Z,5.70
2022-11-15T07:57:11.338Z,6.55
2022-11-15T07:59:57.511Z,4.85
2022-11-15T08:02:43.763Z,7.50
2022-11-15T08:05:33.375Z,6.97
2022-11-15T08:08:46.056Z,21.45
2022-11-15T08:11:35.223Z,8.50
2022-11-15T08:14:24.708Z,7.25
2022-11-15T08:17:11.619Z,4.07
2022-11-15T08:19:59.326Z,3.83
2022-11-15T08:23:04.550Z,4.55
2022-11-15T08:25:52.586Z,4.53
2022-11-15T08:28:39.137Z,6.80
2022-11-15T08:31:34.829Z,5.28
2022-11-15T08:34:20.947Z,4.72
2022-11-15T08:37:07.735Z,3.42
2022-11-15T08:39:54.256Z,1.75
2022-11-15T08:42:40.690Z,3.12
2022-11-15T08:45:27.294Z,6.53
2022-11-15T08:48:13.605Z,6.10
2022-11-15T08:51:02.668Z,5.50
2022-11-15T08:53:51.678Z,3.00
2022-11-15T08:56:38.024Z,6.62
2022-11-15T08:59:27.869Z,5.60
2022-11-15T09:02:16.012Z,6.45
2022-11-15T09:05:02.115Z,6.03
2022-11-15T09:07:55.905Z,5.70
2022-11-15T09:10:42.503Z,5.18
2022-11-15T09:13:28.904Z,3.22
2022-11-15T09:16:16.522Z,2.08
2022-11-15T09:19:05.404Z,3.47
2022-11-15T09:21:54.190Z,5.68
2022-11-15T09:24:40.380Z,2.55
2022-11-15T09:27:30.618Z,2.37
2022-11-15T09:30:19.506Z,2.17
2022-11-15T09:33:14.949Z,2.22
2022-11-15T09:36:03.043Z,2.50
2022-11-15T09:38:49.352Z,1.67
2022-11-15T09:41:48.444Z,2.03
2022-11-15T09:44:56.978Z,5.60
2022-11-15T09:48:29.342Z,1.20
2022-11-15T09:51:03.494Z,3.10
2022-11-15T09:54:18.607Z,4.97
2022-11-15T09:56:32.990Z,4.85
2022-11-15T10:01:45.902Z,4.43
2022-11-15T10:04:15.821Z,3.67
2022-11-15T10:07:02.903Z,3.20
2022-11-15T10:09:40.055Z,5.25
2022-11-15T10:12:10.356Z,3.08
2022-11-15T10:14:38.646Z,5.07
2022-11-15T10:17:41.710Z,8.00
2022-11-15T10:20:23.325Z,4.60
2022-11-15T10:23:02.267Z,2.97
2022-11-15T10:25:32.650Z,2.90
2022-11-15T10:28:24.665Z,4.75
2022-11-15T10:30:58.653Z,3.72
2022-11-15T10:33:42.145Z,4.28
2022-11-15T10:36:10.395Z,6.15
2022-11-15T10:38:54.175Z,3.17
2022-11-15T10:41:28.591Z,1.98
2022-11-15T10:44:12.484Z,4.25
2022-11-15T10:46:47.745Z,1.30
2022-11-15T10:49:20.202Z,3.72
2022-11-15T10:51:54.707Z,3.37
2022-11-15T10:54:53.731Z,6.72
2022-11-15T10:57:34.233Z,1.42
2022-11-15T11:00:21.226Z,2.40
2022-11-15T11:03:34.648Z,2.97
2022-11-15T11:06:10.590Z,3.08
2022-11-15T11:08:53.902Z,2.72
2022-11-15T11:11:21.688Z,2.60
2022-11-15T11:13:49.944Z,5.47
2022-11-15T11:16:41.869Z,4.32
2022-11-15T11:19:25.529Z,2.30
2022-11-15T11:22:29.790Z,4.68
2022-11-15T11:25:18.343Z,7.95
2022-11-15T11:27:55.715Z,4.07
2022-11-15T11:30:33.749Z,3.70
2022-11-15T11:33:10.361Z,5.35
2022-11-15T11:36:01.514Z,4.60
2022-11-15T11:38:56.287Z,4.43
2022-11-15T11:41:40.750Z,3.12
2022-11-15T11:44:23.110Z,3.67
2022-11-15T11:47:05.674Z,8.85
2022-11-15T11:49:55.531Z,4.90
2022-11-15T11:52:28.373Z,3.83
2022-11-15T11:55:21.725Z,2.12
2022-11-15T11:58:00.110Z,5.00
2022-11-15T12:00:29.844Z,4.12
2022-11-15T12:03:21.302Z,0.85
2022-11-15T12:06:01.296Z,1.77
2022-11-15T12:08:41.805Z,2.37
2022-11-15T12:11:24.529Z,2.78
2022-11-15T12:14:01.565Z,3.15
2022-11-15T12:16:32.252Z,1.48
2022-11-15T12:19:03.976Z,6.35
2022-11-15T12:21:31.749Z,1.98
2022-11-15T12:24:10.048Z,0.95
2022-11-15T12:26:51.583Z,3.22
2022-11-15T12:29:29.857Z,2.25
2022-11-15T12:32:02.087Z,3.10
2022-11-15T12:34:29.783Z,1.58
2022-11-15T12:36:57.689Z,2.87
2022-11-15T12:40:04.292Z,2.20
2022-11-15T12:42:32.643Z,1.87
2022-11-15T12:45:01.035Z,4.15
2022-11-15T12:47:31.654Z,6.78
2022-11-15T12:49:59.759Z,4.28
2022-11-15T12:52:27.985Z,4.05
2022-11-15T12:54:58.896Z,3.62
2022-11-15T12:57:30.545Z,2.62
2022-11-15T13:00:08.151Z,3.45
2022-11-15T13:02:46.826Z,7.72
2022-11-15T13:05:17.474Z,2.95
2022-11-15T13:07:45.854Z,4.47
2022-11-15T13:10:31.038Z,2.30
2022-11-15T13:13:10.019Z,2.58
2022-11-15T13:15:57.918Z,2.85
2022-11-15T13:18:41.915Z,2.70
2022-11-15T13:21:41.210Z,5.07
2022-11-15T13:24:15.082Z,7.70
2022-11-15T13:26:43.453Z,4.35
2022-11-15T13:29:18.523Z,8.13
2022-11-15T13:31:47.731Z,3.65
2022-11-15T13:37:22.160Z,5.65
2022-11-15T13:39:51.191Z,5.45
2022-11-15T13:42:21.125Z,4.22
2022-11-15T13:45:00.283Z,6.28
2022-11-15T13:47:30.265Z,3.50
2022-11-15T13:50:09.616Z,5.97
2022-11-15T13:52:44.765Z,3.10
2022-11-15T13:55:20.300Z,3.45
2022-11-15T13:57:55.410Z,5.53
2022-11-15T14:00:35.896Z,3.42
2022-11-15T14:03:16.135Z,3.62
2022-11-15T14:05:44.457Z,5.85
2022-11-15T14:08:21.721Z,7.05
2022-11-15T14:10:49.550Z,6.85
2022-11-15T14:13:30.783Z,3.87
2022-11-15T14:16:21.904Z,3.75
2022-11-15T14:18:53.054Z,4.53
2022-11-15T14:21:22.077Z,5.12
2022-11-15T14:23:54.027Z,8.00
2022-11-15T14:26:34.408Z,3.85
2022-11-15T14:29:25.396Z,4.60
2022-11-15T14:31:54.296Z,6.05
2022-11-15T14:34:23.520Z,3.55
2022-11-15T14:36:51.433Z,4.95
2022-11-15T14:39:19.569Z,8.90
2022-11-15T14:41:47.804Z,9.48
2022-11-15T14:44:19.837Z,4.53
2022-11-15T14:46:49.410Z,3.25
2022-11-15T14:49:20.192Z,5.45
2022-11-15T14:51:48.481Z,6.90
2022-11-15T14:54:18.705Z,5.25
2022-11-15T14:56:46.700Z,9.88
2022-11-15T14:59:15.238Z,11.95
2022-11-15T15:01:45.091Z,8.43
2022-11-15T15:04:23.864Z,4.87
2022-11-15T15:06:52.006Z,6.65
2022-11-15T15:09:19.986Z,4.85
2022-11-15T15:11:48.101Z,6.43
2022-11-15T15:14:19.455Z,7.60
2022-11-15T15:17:03.930Z,3.65
2022-11-15T15:19:35.184Z,3.58
2022-11-15T15:22:03.066Z,6.80
2022-11-15T15:24:30.977Z,7.10
2022-11-15T15:27:02.517Z,6.50
2022-11-15T15:29:30.392Z,3.85
2022-11-15T15:31:58.271Z,8.88
2022-11-15T15:34:26.697Z,5.37
2022-11-15T15:37:24.247Z,7.78
2022-11-15T15:39:56.599Z,7.53
2022-11-15T15:42:25.028Z,6.63
2022-11-15T15:44:53.649Z,7.30
2022-11-15T15:47:24.027Z,6.75
2022-11-15T15:49:52.170Z,8.65
2022-11-15T15:52:20.621Z,10.88
2022-11-15T15:54:48.619Z,13.55
2022-11-15T15:57:16.660Z,11.12
2022-11-15T15:59:44.836Z,14.85
2022-11-15T16:02:16.187Z,12.45
2022-11-15T16:04:44.432Z,11.02
2022-11-15T16:07:22.593Z,6.37
2022-11-15T16:10:03.821Z,7.05
2022-11-15T16:12:36.394Z,5.65
2022-11-15T16:15:05.227Z,6.45
2022-11-15T16:17:42.269Z,8.07
2022-11-15T16:20:22.295Z,6.35
2022-11-15T16:22:50.269Z,4.43
2022-11-15T16:25:21.725Z,7.53
2022-11-15T16:27:49.958Z,8.60
2022-11-15T16:30:21.099Z,11.15
2022-11-15T16:32:49.569Z,17.75
2022-11-15T16:35:18.935Z,17.10
2022-11-15T16:37:47.693Z,20.48
2022-11-15T16:40:30.394Z,13.55
2022-11-15T16:43:03.248Z,13.18
2022-11-15T16:45:32.192Z,24.52
2022-11-15T16:48:00.661Z,10.45
2022-11-15T16:50:31.761Z,10.27
2022-11-15T16:53:00.297Z,14.87
2022-11-15T16:55:30.899Z,15.98
2022-11-15T16:57:59.015Z,12.13
2022-11-15T17:00:27.767Z,17.12
2022-11-15T17:03:00.428Z,10.30
2022-11-15T17:05:28.674Z,11.73
2022-11-15T17:07:57.035Z,16.67
2022-11-15T17:10:26.603Z,13.43
2022-11-15T17:12:56.273Z,11.95
2022-11-15T17:15:25.695Z,11.88
2022-11-15T17:17:54.849Z,16.60
2022-11-15T17:20:24.744Z,9.02
2022-11-15T17:22:53.584Z,9.65
2022-11-15T17:25:21.702Z,9.38
2022-11-15T17:27:50.420Z,12.95
2022-11-15T17:30:20.479Z,11.05
2022-11-15T17:32:50.434Z,8.73
2022-11-15T17:35:20.570Z,14.20
2022-11-15T17:37:49.021Z,7.57
2022-11-15T17:40:21.067Z,7.28
2022-11-15T17:45:18.369Z,7.65
2022-11-15T17:47:50.059Z,9.40
2022-11-15T17:50:24.616Z,8.68
2022-11-15T17:52:53.162Z,8.75
2022-11-15T17:55:22.346Z,7.37
2022-11-15T17:57:50.196Z,8.60
2022-11-15T18:00:21.231Z,8.25
2022-11-15T18:02:52.550Z,6.12
2022-11-15T18:05:20.586Z,7.62
2022-11-15T18:07:48.410Z,6.10
2022-11-15T18:10:16.909Z,7.70
2022-11-15T18:12:44.900Z,9.90
2022-11-15T18:15:12.729Z,5.90
2022-11-15T18:17:41.089Z,6.50
2022-11-15T18:20:10.389Z,7.93
2022-11-15T18:22:41.278Z,5.80
2022-11-15T18:25:09.792Z,10.50
2022-11-15T18:27:38.618Z,6.37
2022-11-15T18:30:10.232Z,12.63
2022-11-15T18:32:38.604Z,6.70
2022-11-15T18:35:07.134Z,9.52
2022-11-15T18:37:37.994Z,8.38
2022-11-15T18:40:06.960Z,9.50
2022-11-15T18:42:41.757Z,10.20
2022-11-15T18:45:11.305Z,7.30
2022-11-15T18:47:39.343Z,9.10
2022-11-15T18:50:07.866Z,8.85
2022-11-15T18:52:36.550Z,4.45
2022-11-15T18:55:04.747Z,7.00
2022-11-15T18:57:33.033Z,8.02
2022-11-15T19:00:01.393Z,5.00
2022-11-15T19:02:31.498Z,5.57
2022-11-15T19:04:59.436Z,7.43
2022-11-15T19:07:28.115Z,6.95
2022-11-15T19:09:56.516Z,8.82
2022-11-15T19:12:27.282Z,8.20
2022-11-15T19:14:55.685Z,6.53
2022-11-15T19:17:23.505Z,5.60
2022-11-15T19:19:54.766Z,4.05
2022-11-15T19:22:23.093Z,6.97
2022-11-15T19:24:51.225Z,7.15
2022-11-15T19:27:19.534Z,6.70
2022-11-15T19:29:47.923Z,5.78
2022-11-15T19:32:16.146Z,6.15
2022-11-15T19:34:44.291Z,6.95
2022-11-15T19:37:12.725Z,4.80
2022-11-15T19:39:41.418Z,5.37
2022-11-15T19:42:09.639Z,5.50
2022-11-15T19:44:38.609Z,4.03
2022-11-15T19:47:09.557Z,6.12
2022-11-15T19:49:38.793Z,4.30
2022-11-15T19:52:07.355Z,9.82
2022-11-15T19:54:35.357Z,4.20
2022-11-15T19:57:03.645Z,3.87
2022-11-15T19:59:31.311Z,4.78
2022-11-15T20:01:59.093Z,5.00
2022-11-15T20:04:27.350Z,8.05
2022-11-15T20:06:55.240Z,4.22
2022-11-15T20:09:23.028Z,3.37
2022-11-15T20:11:51.160Z,4.32
2022-11-15T20:14:18.844Z,5.32
2022-11-15T20:16:50.126Z,5.25
2022-11-15T20:19:21.278Z,7.60
2022-11-15T20:21:49.498Z,3.87
2022-11-15T20:24:17.295Z,4.47
2022-11-15T20:26:47.155Z,6.62
2022-11-15T20:29:14.995Z,5.12
2022-11-15T20:31:42.771Z,3.90
2022-11-15T20:34:11.902Z,3.60
2022-11-15T20:39:26.040Z,5.00
2022-11-15T20:41:53.940Z,4.85
2022-11-15T20:44:22.020Z,6.03
2022-11-15T20:46:50.065Z,3.83
2022-11-15T20:49:20.746Z,6.72
2022-11-15T20:51:48.746Z,4.57
2022-11-15T20:54:24.720Z,3.22
2022-11-15T20:56:52.546Z,6.22
2022-11-15T20:59:23.924Z,7.15
2022-11-15T21:01:51.801Z,4.35
2022-11-15T21:04:20.406Z,4.65
2022-11-15T21:06:49.032Z,8.45
2022-11-15T21:09:35.705Z,5.43
2022-11-15T21:12:16.392Z,2.83
2022-11-15T21:14:49.483Z,3.97
2022-11-15T21:17:17.866Z,4.80
2022-11-15T21:19:47.578Z,5.72
2022-11-15T21:22:16.089Z,5.18
2022-11-15T21:24:44.272Z,3.67
2022-11-15T21:27:12.418Z,2.92
2022-11-15T21:29:40.232Z,3.97
2022-11-15T21:32:09.660Z,4.87
2022-11-15T21:34:41.912Z,4.82
2022-11-15T21:37:16.185Z,4.18
2022-11-15T21:39:47.741Z,5.25
2022-11-15T21:42:19.116Z,4.20
2022-11-15T21:44:47.486Z,6.57
2022-11-15T21:47:15.501Z,4.65
2022-11-15T21:49:43.735Z,6.05
2022-11-15T21:52:11.590Z,6.00
2022-11-15T21:54:44.785Z,4.32
2022-11-15T21:57:13.899Z,7.35
2022-11-15T22:00:02.166Z,5.32
2022-11-15T22:02:32.536Z,6.37
2022-11-15T22:05:01.395Z,5.45
2022-11-15T22:07:30.544Z,8.02
2022-11-15T22:09:59.188Z,4.65
2022-11-15T22:12:29.818Z,6.10
2022-11-15T22:14:57.832Z,7.07
2022-11-15T22:17:46.099Z,6.32
2022-11-15T22:20:42.914Z,8.05
2022-11-15T22:23:05.618Z,4.68
2022-11-15T22:25:36.890Z,8.82
2022-11-15T22:28:04.993Z,8.32
2022-11-15T22:30:33.388Z,10.07
2022-11-15T22:33:01.419Z,7.50
2022-11-15T22:35:34.130Z,8.38
2022-11-15T22:38:02.467Z,6.82
2022-11-15T22:40:30.375Z,7.47
2022-11-15T22:43:00.611Z,5.28
2022-11-15T22:45:29.264Z,8.48
2022-11-15T22:47:57.284Z,7.35
2022-11-15T22:50:28.261Z,6.57
2022-11-15T22:52:56.649Z,5.47
2022-11-15T22:55:24.652Z,7.60
2022-11-15T22:57:52.731Z,7.15
2022-11-15T23:00:21.118Z,5.10
2022-11-15T23:02:53.227Z,9.07
2022-11-15T23:05:23.528Z,7.28
2022-11-15T23:07:56.044Z,10.25
2022-11-15T23:17:26.904Z,9.75
2022-11-15T23:19:54.883Z,6.68
2022-11-15T23:22:44.316Z,8.02
2022-11-15T23:25:12.246Z,5.95
2022-11-15T23:27:40.625Z,6.05
2022-11-15T23:30:27.589Z,7.00
2022-11-15T23:33:14.953Z,7.03
2022-11-15T23:35:42.855Z,5.75
2022-11-15T23:38:11.260Z,8.30
2022-11-15T23:40:39.099Z,7.50
2022-11-15T23:43:06.998Z,7.00
2022-11-15T23:45:38.473Z,9.00
2022-11-15T23:48:06.746Z,10.52
2022-11-15T23:50:34.992Z,6.62
2022-11-15T23:53:04.042Z,8.85
2022-11-15T23:55:35.159Z,11.15
2022-11-15T23:58:03.428Z,7.32
